Time;durP1;ratioP1;P1;durP2;ratioP2;P2;SDS_P1;SDS_P2;PMS_P1;PMS_P2;Temp;Humidity;BMP_temperature;BMP_pressure;BME280_temperature;BME280_humidity;BME280_pressure;Samples;Min_cycle;Max_cycle;Signal;HPM_P1;HPM_P2
2023/03/28 00:00:48;;;;;;;4.32;0.75;;;2.50;99.90;;;;;;5004431;28;20041;-72
2023/03/28 00:03:17;;;;;;;7.00;1.13;;;2.40;99.90;;;;;;5004370;28;20041;-72
2023/03/28 00:05:47;;;;;;;6.57;0.93;;;2.40;99.90;;;;;;5000930;28;20072;-72
2023/03/28 00:08:13;;;;;;;8.03;0.90;;;2.40;99.90;;;;;;5004000;28;20046;-73
2023/03/28 00:10:39;;;;;;;3.85;0.68;;;2.30;99.90;;;;;;5005049;28;20038;-71
2023/03/28 00:13:05;;;;;;;5.20;1.23;;;2.30;99.90;;;;;;5004141;28;20045;-72
2023/03/28 00:15:31;;;;;;;7.93;0.70;;;2.30;99.90;;;;;;5002677;28;20104;-73
2023/03/28 00:17:59;;;;;;;2.33;0.65;;;2.30;99.90;;;;;;5004944;28;20061;-74
2023/03/28 00:20:24;;;;;;;9.63;0.95;;;2.30;99.90;;;;;;4996373;28;20507;-72
2023/03/28 00:22:50;;;;;;;5.05;1.02;;;2.30;99.90;;;;;;5001849;28;20057;-71
2023/03/28 00:25:17;;;;;;;6.38;0.85;;;2.40;99.90;;;;;;5003554;28;20453;-73
2023/03/28 00:27:42;;;;;;;4.18;0.98;;;2.40;99.90;;;;;;5004070;28;20058;-72
2023/03/28 00:30:08;;;;;;;2.33;0.65;;;2.50;99.90;;;;;;5004061;28;20061;-72
2023/03/28 00:32:34;;;;;;;15.15;1.63;;;2.50;99.90;;;;;;5001973;28;20046;-72
2023/03/28 00:34:59;;;;;;;5.82;1.60;;;2.60;99.90;;;;;;5000048;28;20046;-71
2023/03/28 00:37:25;;;;;;;7.03;0.95;;;2.60;99.90;;;;;;5003481;28;20049;-73
2023/03/28 00:39:50;;;;;;;8.40;1.02;;;2.60;99.90;;;;;;5004187;28;20033;-71
2023/03/28 00:42:22;;;;;;;7.40;1.88;;;2.60;99.90;;;;;;5000579;28;20037;-72
2023/03/28 00:44:56;;;;;;;2.95;0.80;;;2.70;99.90;;;;;;5016384;28;20033;-73
2023/03/28 00:47:29;;;;;;;7.13;1.13;;;2.70;99.90;;;;;;5002767;28;20127;-73
2023/03/28 00:50:02;;;;;;;5.55;0.95;;;2.70;99.90;;;;;;5004072;28;20065;-72
2023/03/28 00:52:33;;;;;;;5.13;0.80;;;2.60;99.90;;;;;;5001861;28;20044;-72
2023/03/28 00:54:59;;;;;;;5.70;1.20;;;2.60;99.90;;;;;;5015167;28;20038;-72
2023/03/28 00:57:26;;;;;;;2.33;0.80;;;2.60;99.90;;;;;;5001903;28;20122;-72
2023/03/28 00:59:58;;;;;;;5.32;0.90;;;2.50;99.90;;;;;;5001414;28;20050;-72
2023/03/28 01:02:23;;;;;;;6.43;0.95;;;2.50;99.90;;;;;;5022758;28;20038;-74
2023/03/28 01:05:02;;;;;;;3.45;1.25;;;2.40;99.90;;;;;;5008349;28;20121;-72
2023/03/28 01:07:34;;;;;;;13.20;1.42;;;2.40;99.90;;;;;;5005539;28;20042;-72
2023/03/28 01:10:01;;;;;;;3.60;1.20;;;2.30;99.90;;;;;;5002662;28;20038;-72
2023/03/28 01:12:26;;;;;;;4.45;0.82;;;2.30;99.90;;;;;;5005992;28;20034;-74
2023/03/28 01:14:53;;;;;;;6.97;0.90;;;2.20;99.90;;;;;;5004192;28;20034;-74
2023/03/28 01:17:18;;;;;;;11.48;2.08;;;2.20;99.90;;;;;;5006684;28;20113;-72
2023/03/28 01:20:21;;;;;;;9.88;1.55;;;2.10;99.90;;;;;;5008137;28;20172;-72
2023/03/28 01:23:11;;;;;;;7.32;1.48;;;2.10;99.90;;;;;;5014874;28;20037;-74
2023/03/28 01:26:04;;;;;;;2.83;1.00;;;2.00;99.90;;;;;;5005427;28;20062;-72
2023/03/28 01:29:13;;;;;;;7.63;0.98;;;2.00;99.90;;;;;;5006059;28;20042;-72
2023/03/28 01:32:07;;;;;;;4.22;1.10;;;1.90;99.90;;;;;;5005957;28;20048;-72
2023/03/28 01:35:21;;;;;;;5.00;0.93;;;1.90;99.90;;;;;;5000904;28;20057;-73
2023/03/28 01:37:56;;;;;;;4.22;1.63;;;1.80;99.90;;;;;;4984027;28;20043;-71
2023/03/28 01:40:28;;;;;;;6.05;1.60;;;1.80;99.90;;;;;;5005494;28;20048;-72
2023/03/28 01:43:31;;;;;;;4.05;0.93;;;1.80;99.90;;;;;;5007250;28;20562;-72
2023/03/28 01:46:03;;;;;;;8.43;1.05;;;1.70;99.90;;;;;;5004793;28;20072;-73
2023/03/28 01:49:08;;;;;;;8.18;1.58;;;1.70;99.90;;;;;;5000838;28;20865;-72
2023/03/28 01:51:48;;;;;;;7.28;2.10;;;1.70;99.90;;;;;;4998193;28;20050;-72
2023/03/28 01:54:36;;;;;;;11.43;1.55;;;1.60;99.90;;;;;;5002785;28;20443;-74
2023/03/28 01:57:21;;;;;;;6.43;0.90;;;1.60;99.90;;;;;;5013797;28;20042;-71
2023/03/28 02:00:14;;;;;;;6.38;1.75;;;1.60;99.90;;;;;;4998897;28;20506;-74
2023/03/28 02:02:43;;;;;;;5.28;1.05;;;1.60;99.90;;;;;;5001607;28;20042;-71
2023/03/28 02:05:13;;;;;;;2.88;1.20;;;1.60;99.90;;;;;;5028883;28;20030;-72
2023/03/28 02:07:42;;;;;;;5.05;1.05;;;1.60;99.90;;;;;;5002201;28;20041;-71
2023/03/28 02:10:10;;;;;;;12.82;1.27;;;1.60;99.90;;;;;;5010420;28;20033;-71
2023/03/28 02:12:44;;;;;;;12.00;1.70;;;1.50;99.90;;;;;;4999301;28;20117;-72
2023/03/28 02:15:16;;;;;;;6.32;0.98;;;1.50;99.90;;;;;;5002669;28;20609;-72
2023/03/28 02:17:48;;;;;;;14.45;1.90;;;1.50;99.90;;;;;;4998953;28;20034;-71
2023/03/28 02:20:18;;;;;;;7.03;0.95;;;1.50;99.90;;;;;;5002419;28;20038;-72
2023/03/28 02:22:54;;;;;;;4.50;0.75;;;1.50;99.90;;;;;;4999135;28;20498;-72
2023/03/28 02:25:20;;;;;;;8.98;1.00;;;1.50;99.90;;;;;;4999045;28;20030;-73
2023/03/28 02:27:50;;;;;;;3.63;0.70;;;1.50;99.90;;;;;;5002158;28;20044;-71
2023/03/28 02:30:16;;;;;;;8.23;1.58;;;1.50;99.90;;;;;;5000867;28;20129;-72
2023/03/28 02:32:42;;;;;;;4.60;1.00;;;1.50;99.90;;;;;;5000233;28;20132;-71
2023/03/28 02:35:09;;;;;;;2.00;0.70;;;1.50;99.90;;;;;;5004428;28;20037;-71
2023/03/28 02:38:00;;;;;;;10.68;1.40;;;1.50;99.90;;;;;;4998013;28;20494;-74
2023/03/28 02:40:35;;;;;;;8.00;1.02;;;1.50;99.90;;;;;;5020783;28;20037;-72
2023/03/28 02:43:14;;;;;;;9.13;1.40;;;1.50;99.90;;;;;;5002707;28;20038;-73
2023/03/28 02:46:06;;;;;;;5.90;1.15;;;1.50;99.90;;;;;;5003280;28;20772;-74
2023/03/28 02:49:11;;;;;;;3.40;0.65;;;1.50;99.90;;;;;;5006249;28;20133;-71
2023/03/28 02:51:57;;;;;;;7.07;1.50;;;1.50;99.90;;;;;;5002531;28;20120;-72
2023/03/28 02:54:57;;;;;;;10.40;1.55;;;1.40;99.90;;;;;;4998899;28;20034;-73
2023/03/28 02:57:40;;;;;;;6.80;1.00;;;1.40;99.90;;;;;;5005428;28;20397;-72
2023/03/28 03:00:11;;;;;;;7.20;1.23;;;1.40;99.90;;;;;;4998827;28;20620;-73
2023/03/28 03:02:41;;;;;;;5.30;1.40;;;1.40;99.90;;;;;;5005900;28;20030;-72
2023/03/28 03:05:08;;;;;;;4.43;1.17;;;1.40;99.90;;;;;;5005731;28;20129;-71
2023/03/28 03:07:35;;;;;;;5.82;0.93;;;1.40;99.90;;;;;;4997848;28;20495;-71
2023/03/28 03:10:01;;;;;;;8.25;1.10;;;1.30;99.90;;;;;;5003055;28;20038;-73
2023/03/28 03:12:27;;;;;;;15.88;2.17;;;1.30;99.90;;;;;;5005427;28;20508;-71
2023/03/28 03:14:53;;;;;;;5.88;1.60;;;1.30;99.90;;;;;;4997003;28;20483;-72
2023/03/28 03:17:19;;;;;;;3.83;1.10;;;1.30;99.90;;;;;;4996387;28;20044;-71
2023/03/28 03:19:45;;;;;;;7.68;1.33;;;1.20;99.90;;;;;;4999486;28;20562;-72
2023/03/28 03:22:11;;;;;;;9.13;2.55;;;1.20;99.90;;;;;;5000898;28;20084;-71
2023/03/28 03:24:38;;;;;;;4.97;1.48;;;1.20;99.90;;;;;;5002633;28;20867;-72
2023/03/28 03:27:03;;;;;;;6.85;1.42;;;1.20;99.90;;;;;;4999745;28;20034;-72
2023/03/28 03:29:29;;;;;;;11.07;1.88;;;1.20;99.90;;;;;;5000632;28;20092;-71
2023/03/28 03:31:55;;;;;;;4.88;1.30;;;1.20;99.90;;;;;;5001687;28;20090;-72
2023/03/28 03:34:20;;;;;;;5.00;1.40;;;1.20;99.90;;;;;;5001639;28;20422;-72
2023/03/28 03:36:48;;;;;;;5.93;1.52;;;1.10;99.90;;;;;;5001592;28;20140;-71
2023/03/28 03:39:14;;;;;;;6.05;1.45;;;1.10;99.90;;;;;;4995526;28;20037;-71
2023/03/28 03:41:40;;;;;;;10.73;2.33;;;1.10;99.90;;;;;;5000876;28;20026;-72
2023/03/28 03:44:05;;;;;;;4.53;1.60;;;1.10;99.90;;;;;;5005344;28;20446;-72
2023/03/28 03:46:31;;;;;;;4.38;1.83;;;1.10;99.90;;;;;;5001122;28;20406;-72
2023/03/28 03:48:57;;;;;;;4.63;1.40;;;1.10;99.90;;;;;;5007408;28;20104;-71
2023/03/28 03:51:22;;;;;;;11.15;2.22;;;1.10;99.90;;;;;;4999564;28;20052;-72
2023/03/28 03:53:49;;;;;;;11.65;1.63;;;1.10;99.90;;;;;;4996792;28;20038;-72
2023/03/28 03:56:15;;;;;;;5.90;1.33;;;1.10;99.90;;;;;;5000180;28;20036;-72
2023/03/28 03:58:40;;;;;;;4.75;1.17;;;1.10;99.90;;;;;;5003180;28;20022;-72
2023/03/28 04:01:08;;;;;;;5.57;1.45;;;1.10;99.90;;;;;;5004954;28;20034;-72
2023/03/28 04:03:34;;;;;;;6.53;1.63;;;1.10;99.90;;;;;;5001448;28;20881;-71
2023/03/28 04:06:00;;;;;;;3.63;1.20;;;1.10;99.90;;;;;;5001278;28;20057;-72
2023/03/28 04:08:26;;;;;;;4.68;1.13;;;1.10;99.90;;;;;;5004849;28;20384;-72
2023/03/28 04:10:51;;;;;;;7.88;1.60;;;1.10;99.90;;;;;;4999075;28;20033;-73
2023/03/28 04:13:17;;;;;;;4.90;1.10;;;1.10;99.90;;;;;;5000305;28;20133;-71
2023/03/28 04:15:46;;;;;;;6.90;1.10;;;1.00;99.90;;;;;;5002720;28;20089;-71
2023/03/28 04:18:14;;;;;;;8.07;1.02;;;1.10;99.90;;;;;;5000041;28;20115;-72
2023/03/28 04:20:40;;;;;;;8.95;1.23;;;1.10;99.90;;;;;;4999677;28;20045;-72
2023/03/28 04:23:07;;;;;;;5.50;0.95;;;1.00;99.90;;;;;;5000500;28;20394;-71
2023/03/28 04:25:32;;;;;;;8.02;1.20;;;1.10;99.90;;;;;;4999364;28;20046;-72
2023/03/28 04:28:00;;;;;;;6.60;1.67;;;1.10;99.90;;;;;;4996884;28;20045;-73
2023/03/28 04:30:26;;;;;;;4.93;1.55;;;1.00;99.90;;;;;;4996499;28;20442;-71
2023/03/28 04:32:53;;;;;;;5.03;1.77;;;1.00;99.90;;;;;;5005264;28;20033;-74
2023/03/28 04:35:19;;;;;;;6.15;1.60;;;1.00;99.90;;;;;;5004687;28;20833;-74
2023/03/28 04:37:46;;;;;;;8.52;1.95;;;1.00;99.90;;;;;;4997657;28;20049;-71
2023/03/28 04:40:15;;;;;;;6.45;1.63;;;1.00;99.90;;;;;;5003300;28;20030;-72
2023/03/28 04:42:41;;;;;;;5.93;2.75;;;1.00;99.90;;;;;;4996018;28;20037;-72
2023/03/28 04:45:07;;;;;;;5.47;1.80;;;1.00;99.90;;;;;;4995414;28;20089;-71
2023/03/28 04:47:33;;;;;;;8.55;1.40;;;1.00;99.90;;;;;;5005848;28;20053;-71
2023/03/28 04:49:59;;;;;;;4.40;1.10;;;0.90;99.90;;;;;;5008599;28;20053;-71
2023/03/28 04:52:25;;;;;;;10.57;1.85;;;0.90;99.90;;;;;;5007596;28;20273;-72
2023/03/28 04:54:51;;;;;;;4.32;1.10;;;0.90;99.90;;;;;;4994424;28;20125;-72
2023/03/28 04:57:16;;;;;;;6.35;1.25;;;0.90;99.90;;;;;;5004403;28;20045;-73
2023/03/28 04:59:42;;;;;;;4.88;1.23;;;0.90;99.90;;;;;;5024526;28;20038;-73
2023/03/28 05:02:09;;;;;;;5.07;1.10;;;0.90;99.90;;;;;;5004065;28;20948;-71
2023/03/28 05:04:34;;;;;;;3.08;1.30;;;0.90;99.90;;;;;;5005732;28;20057;-71
2023/03/28 05:07:06;;;;;;;7.47;1.48;;;0.90;99.90;;;;;;5003614;28;20061;-71
2023/03/28 05:09:32;;;;;;;3.80;1.27;;;0.90;99.90;;;;;;5012024;28;20041;-73
2023/03/28 05:11:58;;;;;;;9.55;1.60;;;0.90;99.90;;;;;;5012073;28;20038;-72
2023/03/28 05:14:23;;;;;;;5.13;1.20;;;0.90;99.90;;;;;;5000788;28;20034;-72
2023/03/28 05:16:49;;;;;;;6.43;1.20;;;0.90;99.90;;;;;;5006341;28;20108;-73
2023/03/28 05:19:15;;;;;;;4.55;1.40;;;1.00;99.90;;;;;;5011489;28;20030;-73
2023/03/28 05:21:40;;;;;;;7.45;1.00;;;0.90;99.90;;;;;;5002332;28;20069;-72
2023/03/28 05:24:07;;;;;;;5.05;1.25;;;0.90;99.90;;;;;;5007240;28;20509;-72
2023/03/28 05:26:35;;;;;;;5.55;1.42;;;1.00;99.90;;;;;;5004387;28;20488;-74
2023/03/28 05:29:00;;;;;;;6.32;1.73;;;1.00;99.90;;;;;;5003913;28;20688;-73
2023/03/28 05:31:29;;;;;;;3.33;1.00;;;1.00;99.90;;;;;;5003748;28;20030;-73
2023/03/28 05:33:54;;;;;;;3.88;1.83;;;1.00;99.90;;;;;;5003008;28;20064;-72
2023/03/28 05:36:20;;;;;;;3.60;0.93;;;1.10;99.90;;;;;;5004284;28;20141;-74
2023/03/28 05:38:45;;;;;;;7.68;1.67;;;1.10;99.90;;;;;;5004613;28;20033;-72
2023/03/28 05:41:11;;;;;;;5.60;1.15;;;1.10;99.90;;;;;;5002407;28;20030;-73
2023/03/28 05:43:37;;;;;;;5.00;1.20;;;1.10;99.90;;;;;;5004186;28;20100;-73
2023/03/28 05:46:02;;;;;;;4.53;1.27;;;1.20;99.90;;;;;;5003579;28;20124;-73
2023/03/28 05:48:28;;;;;;;8.65;1.48;;;1.30;99.90;;;;;;5004641;28;20457;-72
2023/03/28 05:50:54;;;;;;;8.10;2.65;;;1.30;99.90;;;;;;5003917;28;20060;-74
2023/03/28 05:53:19;;;;;;;11.45;1.52;;;1.30;99.90;;;;;;5005885;28;20050;-72
2023/03/28 05:55:48;;;;;;;7.78;1.85;;;1.40;99.90;;;;;;5003563;28;20041;-72
2023/03/28 05:58:15;;;;;;;7.25;1.92;;;1.50;99.90;;;;;;5004650;28;20097;-73
2023/03/28 06:00:41;;;;;;;7.57;2.53;;;1.60;99.90;;;;;;5000369;28;20092;-72
2023/03/28 06:03:08;;;;;;;9.50;2.28;;;1.70;99.90;;;;;;5005890;28;20366;-72
2023/03/28 06:05:34;;;;;;;8.82;1.85;;;1.80;99.90;;;;;;5003448;28;20034;-72
2023/03/28 06:08:00;;;;;;;7.80;1.90;;;2.00;99.90;;;;;;5004693;28;20049;-72
2023/03/28 06:10:26;;;;;;;10.98;2.20;;;2.30;99.90;;;;;;5003813;28;20414;-74
2023/03/28 06:12:54;;;;;;;4.70;1.90;;;2.70;99.90;;;;;;5004141;28;20041;-71
2023/03/28 06:15:20;;;;;;;7.85;2.08;;;3.00;99.90;;;;;;5000591;28;20042;-72
2023/03/28 06:17:45;;;;;;;7.72;1.80;;;3.20;99.90;;;;;;5016191;28;20108;-71
2023/03/28 06:20:12;;;;;;;6.57;2.13;;;3.30;99.90;;;;;;5001523;28;20393;-71
2023/03/28 06:22:38;;;;;;;9.23;2.08;;;3.30;99.90;;;;;;4999076;28;20046;-72
2023/03/28 06:25:05;;;;;;;11.45;2.03;;;3.40;99.90;;;;;;5003135;28;20052;-74
2023/03/28 06:27:30;;;;;;;7.03;1.90;;;3.40;99.90;;;;;;5000461;28;20048;-72
2023/03/28 06:29:57;;;;;;;8.10;1.70;;;3.50;99.90;;;;;;5002242;28;20033;-73
2023/03/28 06:32:22;;;;;;;10.00;2.50;;;3.60;99.90;;;;;;5001261;28;20044;-74
2023/03/28 06:34:48;;;;;;;4.85;1.23;;;3.70;99.90;;;;;;5003972;28;20072;-71
2023/03/28 06:37:14;;;;;;;4.57;1.90;;;3.90;99.90;;;;;;5000808;28;20117;-72
2023/03/28 06:39:39;;;;;;;5.25;1.83;;;4.00;99.90;;;;;;5002469;28;20139;-72
2023/03/28 06:42:08;;;;;;;3.70;1.30;;;4.00;99.90;;;;;;5001291;28;20038;-73
2023/03/28 06:44:33;;;;;;;10.05;1.30;;;4.00;99.90;;;;;;5003329;28;20042;-73
2023/03/28 06:46:59;;;;;;;8.05;1.67;;;4.00;99.90;;;;;;5003923;28;20082;-72
2023/03/28 06:49:25;;;;;;;4.53;1.25;;;4.00;99.90;;;;;;5002997;28;20026;-75
2023/03/28 06:51:51;;;;;;;5.45;1.70;;;4.00;99.90;;;;;;5000998;28;20042;-72
2023/03/28 06:54:17;;;;;;;6.95;1.92;;;3.90;99.90;;;;;;5000669;28;20038;-72
2023/03/28 06:56:43;;;;;;;5.72;1.20;;;3.90;99.90;;;;;;4999388;28;20030;-72
2023/03/28 06:59:09;;;;;;;4.18;1.88;;;3.80;99.90;;;;;;5002000;28;20923;-73
2023/03/28 07:01:34;;;;;;;4.22;1.60;;;3.90;99.90;;;;;;5000981;28;20049;-72
2023/03/28 07:04:01;;;;;;;6.88;1.98;;;4.00;99.90;;;;;;5002334;28;20038;-72
2023/03/28 07:06:27;;;;;;;8.73;2.72;;;4.20;99.90;;;;;;5000954;28;20033;-73
2023/03/28 07:08:53;;;;;;;7.93;2.13;;;4.40;99.90;;;;;;5001404;28;20092;-71
2023/03/28 07:11:19;;;;;;;10.63;1.88;;;4.60;99.90;;;;;;5001832;28;20026;-71
2023/03/28 07:13:44;;;;;;;10.18;1.58;;;4.80;99.90;;;;;;5001733;28;20057;-72
2023/03/28 07:16:12;;;;;;;8.18;1.98;;;5.10;99.90;;;;;;5001090;28;20030;-73
2023/03/28 07:18:38;;;;;;;5.18;1.67;;;5.20;99.90;;;;;;5000575;28;20109;-71
2023/03/28 07:21:09;;;;;;;5.13;1.70;;;5.20;99.90;;;;;;5013404;28;20038;-73
2023/03/28 07:23:34;;;;;;;;;;;5.20;99.90;;;;;;5000898;28;20034;-71
2023/03/28 07:26:00;;;;;;;9.98;2.80;;;5.30;99.90;;;;;;5002182;28;19921;-73
2023/03/28 07:28:26;;;;;;;7.47;2.30;;;5.40;99.90;;;;;;5000355;28;20030;-72
2023/03/28 07:30:55;;;;;;;6.93;2.10;;;5.40;99.90;;;;;;4999946;28;20049;-72
2023/03/28 07:33:20;;;;;;;4.78;1.83;;;5.60;99.90;;;;;;4998062;28;20410;-72
2023/03/28 07:35:46;;;;;;;9.25;2.97;;;5.70;99.90;;;;;;4997585;28;20031;-72
2023/03/28 07:38:11;;;;;;;9.40;2.53;;;5.70;99.90;;;;;;5001492;28;20041;-73
2023/03/28 07:40:40;;;;;;;5.40;1.63;;;5.70;99.90;;;;;;5000286;28;20049;-72
2023/03/28 07:43:05;;;;;;;6.10;2.22;;;5.70;99.90;;;;;;5000383;28;20096;-73
2023/03/28 07:45:31;;;;;;;8.32;2.10;;;5.70;99.90;;;;;;5000388;28;20038;-72
2023/03/28 07:47:56;;;;;;;9.27;2.58;;;5.80;99.90;;;;;;4999663;28;20030;-73
2023/03/28 07:50:22;;;;;;;8.00;2.38;;;6.00;99.90;;;;;;5001386;28;20117;-73
2023/03/28 07:52:48;;;;;;;12.70;2.45;;;6.10;99.90;;;;;;5016227;28;20069;-72
2023/03/28 07:55:13;;;;;;;8.77;3.10;;;6.20;99.90;;;;;;4998970;28;20038;-72
2023/03/28 07:57:39;;;;;;;10.50;2.67;;;6.20;99.90;;;;;;4999387;28;20504;-74
2023/03/28 08:00:11;;;;;;;8.02;1.90;;;6.30;99.90;;;;;;4999909;28;20134;-72
2023/03/28 08:02:39;;;;;;;6.47;2.08;;;6.30;99.90;;;;;;4998062;28;20061;-72
2023/03/28 08:05:05;;;;;;;6.13;1.60;;;6.40;99.90;;;;;;4999499;28;20038;-75
2023/03/28 08:07:32;;;;;;;5.22;1.73;;;6.50;99.90;;;;;;5000296;28;20131;-72
2023/03/28 08:09:58;;;;;;;9.57;3.42;;;6.60;99.90;;;;;;4999161;28;20112;-73
2023/03/28 08:12:24;;;;;;;4.82;1.75;;;6.70;99.90;;;;;;4998292;28;20124;-72
2023/03/28 08:14:50;;;;;;;5.05;1.90;;;6.80;99.90;;;;;;4999912;28;20801;-72
2023/03/28 08:17:15;;;;;;;7.57;2.55;;;6.90;99.90;;;;;;5000417;28;20396;-71
2023/03/28 08:19:41;;;;;;;3.50;1.63;;;7.00;99.90;;;;;;4999452;28;20041;-75
2023/03/28 08:22:11;;;;;;;4.07;1.30;;;7.10;99.90;;;;;;5012473;28;20040;-72
2023/03/28 08:24:36;;;;;;;7.53;1.50;;;7.10;99.90;;;;;;5000082;28;20060;-73
2023/03/28 08:27:03;;;;;;;7.80;1.80;;;7.30;99.90;;;;;;4999665;28;20281;-74
2023/03/28 08:29:29;;;;;;;8.23;1.85;;;7.40;99.90;;;;;;4999682;28;20076;-73
2023/03/28 08:31:55;;;;;;;4.82;1.40;;;7.40;99.90;;;;;;4998158;28;20124;-72
2023/03/28 08:34:20;;;;;;;8.40;2.03;;;7.50;99.90;;;;;;4997479;28;20042;-74
2023/03/28 08:36:47;;;;;;;7.45;2.15;;;7.50;99.90;;;;;;4999885;28;20548;-73
2023/03/28 08:39:13;;;;;;;10.18;2.22;;;7.60;99.90;;;;;;4999285;28;20622;-73
2023/03/28 08:42:30;;;;;;;5.97;1.58;;;7.70;99.90;;;;;;4995146;28;20038;-72
2023/03/28 08:45:02;;;;;;;12.77;2.15;;;7.80;99.90;;;;;;4986154;28;20050;-72
2023/03/28 08:47:56;;;;;;;9.02;1.60;;;7.90;99.90;;;;;;4999199;28;20068;-71
2023/03/28 08:50:30;;;;;;;7.07;1.98;;;8.00;99.90;;;;;;4999182;28;20050;-73
2023/03/28 08:52:56;;;;;;;6.00;1.58;;;8.10;99.90;;;;;;4997483;28;20108;-72
2023/03/28 08:55:50;;;;;;;7.40;1.15;;;8.20;99.90;;;;;;4999019;28;20109;-72
2023/03/28 08:58:20;;;;;;;4.55;1.05;;;8.30;99.90;;;;;;4999253;28;20146;-73
2023/03/28 09:00:47;;;;;;;10.73;1.67;;;8.30;99.90;;;;;;4998048;28;20042;-71
2023/03/28 09:03:17;;;;;;;9.05;2.45;;;8.30;99.90;;;;;;4999499;28;20049;-72
2023/03/28 09:06:06;;;;;;;7.43;1.88;;;8.30;99.90;;;;;;4999134;28;20562;-72
2023/03/28 09:09:03;;;;;;;7.65;1.60;;;8.30;99.90;;;;;;4997751;28;20100;-73
2023/03/28 09:11:37;;;;;;;9.68;1.45;;;8.30;99.90;;;;;;5001298;28;20034;-74
2023/03/28 09:14:40;;;;;;;3.17;1.30;;;8.40;99.90;;;;;;5001365;28;20490;-74
2023/03/28 09:17:30;;;;;;;4.70;1.02;;;8.50;99.90;;;;;;4998721;28;20117;-72
2023/03/28 09:20:35;;;;;;;4.45;1.23;;;8.40;99.90;;;;;;4997538;28;20045;-72
2023/03/28 09:23:19;;;;;;;6.47;1.45;;;8.40;99.90;;;;;;4988068;28;20057;-72
2023/03/28 09:25:59;;;;;;;3.63;0.93;;;8.40;99.90;;;;;;4995775;28;20058;-72
2023/03/28 09:28:34;;;;;;;6.38;1.67;;;8.40;99.90;;;;;;4998283;28;20141;-72
2023/03/28 09:31:01;;;;;;;4.57;2.10;;;8.40;99.90;;;;;;5000693;28;20038;-74
2023/03/28 09:33:32;;;;;;;5.80;1.42;;;8.50;99.90;;;;;;5001258;28;20125;-73
2023/03/28 09:35:57;;;;;;;5.65;1.25;;;8.50;99.90;;;;;;5002222;28;20072;-72
2023/03/28 09:38:34;;;;;;;5.82;1.30;;;8.60;99.90;;;;;;5002971;28;20542;-74
2023/03/28 09:41:06;;;;;;;3.53;1.75;;;8.60;99.90;;;;;;5000806;28;20033;-73
2023/03/28 09:43:46;;;;;;;5.20;1.10;;;8.60;99.90;;;;;;5001277;28;20046;-72
2023/03/28 09:46:29;;;;;;;3.25;1.00;;;8.70;99.90;;;;;;5004643;28;20040;-72
2023/03/28 09:48:55;;;;;;;5.25;0.90;;;8.70;99.90;;;;;;5000988;28;20165;-72
2023/03/28 09:51:21;;;;;;;8.20;2.13;;;8.70;99.90;;;;;;5001379;28;20441;-72
2023/03/28 09:53:47;;;;;;;8.15;0.70;;;8.60;99.90;;;;;;5001514;28;20049;-74
2023/03/28 09:56:28;;;;;;;6.13;0.70;;;8.60;99.90;;;;;;4999469;28;20056;-73
2023/03/28 09:58:56;;;;;;;5.38;0.68;;;8.60;99.90;;;;;;5000341;28;20122;-73
2023/03/28 10:01:44;;;;;;;4.70;1.23;;;8.50;99.90;;;;;;5002469;28;20044;-72
2023/03/28 10:04:13;;;;;;;4.38;1.23;;;8.50;99.90;;;;;;5016591;28;20074;-72
2023/03/28 10:06:40;;;;;;;5.88;0.73;;;8.50;99.90;;;;;;5002011;28;20030;-73
2023/03/28 10:09:19;;;;;;;2.30;0.70;;;8.50;99.90;;;;;;5003149;28;20030;-76
2023/03/28 10:11:58;;;;;;;2.50;0.90;;;8.60;99.90;;;;;;4998591;28;20049;-73
2023/03/28 10:14:32;;;;;;;2.33;0.80;;;8.60;99.90;;;;;;5000854;28;20029;-73
2023/03/28 10:17:09;;;;;;;2.72;1.08;;;8.60;99.90;;;;;;5003487;28;20931;-73
2023/03/28 10:19:39;;;;;;;5.78;0.80;;;8.70;99.90;;;;;;4998218;28;20081;-73
2023/03/28 10:22:11;;;;;;;4.00;0.60;;;8.70;99.90;;;;;;4999769;28;20026;-72
2023/03/28 10:24:38;;;;;;;3.42;0.70;;;8.80;99.90;;;;;;5000851;28;20113;-73
2023/03/28 10:27:25;;;;;;;3.10;0.88;;;8.80;98.10;;;;;;5001371;28;20096;-71
2023/03/28 10:29:54;;;;;;;6.75;1.42;;;8.80;98.40;;;;;;5000418;28;20045;-72
2023/03/28 10:32:29;;;;;;;5.60;0.40;;;8.80;98.60;;;;;;5000747;28;20042;-72
2023/03/28 10:35:22;;;;;;;2.15;0.43;;;8.80;98.30;;;;;;5003175;28;20276;-74
2023/03/28 10:37:53;;;;;;;3.15;0.60;;;9.00;98.10;;;;;;4999197;28;20053;-73
2023/03/28 10:40:19;;;;;;;1.50;0.45;;;9.10;98.50;;;;;;5001750;28;20073;-73
2023/03/28 10:42:48;;;;;;;1.98;0.50;;;9.20;97.50;;;;;;5000076;28;20144;-71
2023/03/28 10:45:32;;;;;;;13.45;0.70;;;9.30;98.00;;;;;;5000769;28;20034;-72
2023/03/28 10:48:00;;;;;;;4.85;1.45;;;9.40;98.00;;;;;;5015091;28;20042;-73
2023/03/28 10:50:34;;;;;;;2.03;0.80;;;9.40;98.20;;;;;;5001733;28;20398;-73
2023/03/28 10:53:18;;;;;;;4.68;0.98;;;9.50;97.60;;;;;;5002277;28;20692;-72
2023/03/28 10:55:59;;;;;;;2.65;0.88;;;9.60;97.80;;;;;;5000549;28;20048;-72
2023/03/28 10:58:52;;;;;;;4.80;1.20;;;9.60;97.10;;;;;;5001792;28;20042;-72
2023/03/28 11:01:28;;;;;;;5.80;0.85;;;9.70;96.70;;;;;;4999555;28;20056;-72
2023/03/28 11:04:06;;;;;;;7.25;0.63;;;9.70;96.30;;;;;;5001221;28;20136;-72
2023/03/28 11:06:50;;;;;;;2.53;0.80;;;9.70;96.10;;;;;;4999735;28;20042;-73
2023/03/28 11:09:21;;;;;;;4.22;0.80;;;9.70;97.20;;;;;;5001663;28;20042;-72
2023/03/28 11:12:15;;;;;;;3.10;1.13;;;9.60;96.80;;;;;;5000210;28;20041;-72
2023/03/28 11:15:01;;;;;;;5.20;1.08;;;9.70;96.90;;;;;;5001106;28;20506;-72
2023/03/28 11:17:50;;;;;;;4.25;0.93;;;9.70;96.70;;;;;;5001784;28;20434;-73
2023/03/28 11:20:41;;;;;;;5.47;1.38;;;9.50;96.50;;;;;;4999508;28;20042;-72
2023/03/28 11:23:44;;;;;;;7.20;1.08;;;9.40;97.60;;;;;;4999928;28;20508;-72
2023/03/28 11:26:14;;;;;;;4.80;1.05;;;9.50;97.40;;;;;;4998499;28;20034;-72
2023/03/28 11:28:49;;;;;;;3.20;1.15;;;9.50;97.70;;;;;;5002192;28;20040;-73
2023/03/28 11:31:25;;;;;;;8.05;2.08;;;9.30;98.40;;;;;;5001803;28;20113;-73
2023/03/28 11:34:21;;;;;;;6.53;1.30;;;9.30;98.30;;;;;;5000351;28;20711;-71
2023/03/28 11:37:26;;;;;;;7.25;1.58;;;9.10;97.80;;;;;;5000655;28;20151;-71
2023/03/28 11:40:00;;;;;;;3.15;0.85;;;9.20;97.30;;;;;;5009548;28;20046;-72
2023/03/28 11:42:34;;;;;;;3.90;1.02;;;9.20;96.80;;;;;;5001587;28;20117;-72
2023/03/28 11:45:06;;;;;;;9.63;1.70;;;9.20;97.20;;;;;;5003396;28;20041;-72
2023/03/28 11:47:44;;;;;;;4.22;1.00;;;9.30;97.30;;;;;;5013397;28;20062;-74
2023/03/28 11:50:21;;;;;;;4.15;0.90;;;9.30;97.70;;;;;;5002821;28;20038;-73
2023/03/28 11:53:05;;;;;;;4.30;1.05;;;9.40;97.60;;;;;;5006167;28;20042;-73
2023/03/28 11:55:40;;;;;;;2.92;1.40;;;9.30;97.10;;;;;;5019162;28;20044;-74
2023/03/28 11:58:11;;;;;;;3.28;1.08;;;9.40;96.80;;;;;;5001473;28;20053;-72
2023/03/28 12:00:50;;;;;;;5.28;0.70;;;9.50;96.90;;;;;;5000312;28;20076;-72
2023/03/28 12:03:35;;;;;;;2.50;0.80;;;9.60;97.10;;;;;;5000627;28;20038;-72
2023/03/28 12:06:03;;;;;;;5.78;0.90;;;9.60;97.10;;;;;;4997187;28;20038;-74
2023/03/28 12:08:52;;;;;;;6.65;1.05;;;9.60;96.60;;;;;;5001024;28;20402;-73
2023/03/28 12:11:29;;;;;;;5.93;1.35;;;9.70;96.70;;;;;;5014330;28;20046;-74
2023/03/28 12:14:01;;;;;;;8.65;1.42;;;9.80;97.00;;;;;;5000900;28;20036;-74
2023/03/28 12:16:35;;;;;;;2.53;0.65;;;9.70;96.00;;;;;;4997812;28;20137;-75
2023/03/28 12:19:05;;;;;;;4.53;0.82;;;9.70;95.90;;;;;;5002998;28;20032;-74
2023/03/28 12:21:33;;;;;;;2.30;0.85;;;9.50;95.90;;;;;;4999366;28;20135;-71
2023/03/28 12:24:22;;;;;;;2.63;0.90;;;9.30;96.30;;;;;;5001169;28;20092;-74
2023/03/28 12:27:14;;;;;;;2.58;0.60;;;9.20;96.80;;;;;;5019714;28;20054;-74
2023/03/28 12:29:55;;;;;;;4.55;1.08;;;9.10;97.30;;;;;;4996713;28;20567;-74
2023/03/28 12:32:26;;;;;;;;;;;9.20;97.40;;;;;;5000823;28;20034;-75
2023/03/28 12:35:25;;;;;;;4.15;0.68;;;9.20;97.30;;;;;;5017307;28;20557;-74
2023/03/28 12:38:13;;;;;;;1.95;0.90;;;9.20;97.10;;;;;;4999752;28;20041;-73
2023/03/28 12:41:10;;;;;;;5.18;1.00;;;9.20;96.70;;;;;;4998532;28;20118;-73
2023/03/28 12:43:56;;;;;;;5.18;1.08;;;9.20;96.90;;;;;;4995692;28;20042;-74
2023/03/28 12:46:30;;;;;;;2.05;0.80;;;9.40;96.40;;;;;;5000305;28;20044;-75
2023/03/28 12:49:11;;;;;;;2.75;0.80;;;9.60;96.40;;;;;;5019034;28;20112;-72
2023/03/28 12:51:46;;;;;;;3.45;0.88;;;9.70;96.10;;;;;;5000250;28;20045;-75
2023/03/28 12:54:15;;;;;;;4.18;0.70;;;9.80;96.80;;;;;;4999599;28;20132;-75
2023/03/28 12:57:09;;;;;;;5.30;0.98;;;9.80;96.30;;;;;;4999306;28;20042;-73
2023/03/28 12:59:38;;;;;;;4.63;1.00;;;9.70;96.10;;;;;;4999791;28;20038;-72
2023/03/28 13:02:24;;;;;;;6.10;1.48;;;9.60;96.10;;;;;;5001085;28;20411;-72
2023/03/28 13:05:10;;;;;;;11.45;1.13;;;9.50;96.60;;;;;;5000472;28;20050;-72
2023/03/28 13:08:01;;;;;;;3.20;1.15;;;9.50;96.50;;;;;;5002284;28;20125;-73
2023/03/28 13:10:54;;;;;;;;;;;9.40;96.70;;;;;;5002445;28;20038;-72
2023/03/28 13:13:39;;;;;;;6.55;0.80;;;9.40;96.50;;;;;;5002991;28;19925;-71
2023/03/28 13:16:14;;;;;;;2.55;0.93;;;9.40;97.20;;;;;;5017765;28;20118;-72
2023/03/28 13:18:48;;;;;;;2.80;0.63;;;9.50;97.40;;;;;;5003054;28;20037;-72
2023/03/28 13:21:49;;;;;;;6.13;1.10;;;9.40;96.00;;;;;;5005580;28;20130;-74
2023/03/28 13:24:24;;;;;;;5.90;0.90;;;9.50;96.00;;;;;;5002597;28;20038;-74
2023/03/28 13:27:11;;;;;;;6.80;0.70;;;9.70;96.60;;;;;;5005729;28;20038;-73